createdAt,value
2023-05-01T00:02:22.341Z,8.63
2023-05-01T00:05:13.676Z,8.61
2023-05-01T00:07:56.509Z,8.59
2023-05-01T00:10:41.909Z,8.58
2023-05-01T00:13:26.704Z,8.54
2023-05-01T00:16:10.252Z,8.52
2023-05-01T00:18:44.022Z,8.54
2023-05-01T00:21:23.645Z,8.50
2023-05-01T00:24:10.050Z,8.47
2023-05-01T00:26:50.004Z,8.49
2023-05-01T00:29:45.626Z,8.50
2023-05-01T00:32:25.832Z,8.51
2023-05-01T00:35:03.573Z,8.52
2023-05-01T00:37:53.091Z,8.52
2023-05-01T00:41:18.367Z,8.54
2023-05-01T00:43:50.433Z,8.56
2023-05-01T00:46:27.179Z,8.52
2023-05-01T00:49:06.295Z,8.51
2023-05-01T00:52:09.032Z,8.52
2023-05-01T00:58:38.754Z,8.48
2023-05-01T01:01:34.151Z,8.47
2023-05-01T01:04:12.456Z,8.49
2023-05-01T01:07:28.264Z,8.51
2023-05-01T01:10:24.446Z,8.55
2023-05-01T01:13:32.709Z,8.54
2023-05-01T01:16:31.570Z,8.56
2023-05-01T01:24:08.816Z,8.52
2023-05-01T01:27:30.173Z,8.56
2023-05-01T01:33:28.241Z,8.49
2023-05-01T01:36:07.685Z,8.62
2023-05-01T01:38:54.793Z,8.61
2023-05-01T01:41:31.113Z,8.62
2023-05-01T01:44:13.643Z,8.62
2023-05-01T01:46:50.199Z,8.62
2023-05-01T01:49:24.345Z,8.59
2023-05-01T01:52:19.295Z,8.60
2023-05-01T01:55:22.125Z,8.62
2023-05-01T01:58:18.791Z,8.63
2023-05-01T02:00:54.781Z,8.62
2023-05-01T02:03:27.587Z,8.63
2023-05-01T02:06:05.867Z,8.60
2023-05-01T02:08:49.344Z,8.59
2023-05-01T02:11:37.410Z,8.57
2023-05-01T02:14:25.903Z,8.54
2023-05-01T02:17:24.539Z,8.53
2023-05-01T02:19:59.633Z,8.52
2023-05-01T02:22:36.202Z,8.51
2023-05-01T02:25:23.894Z,8.50
2023-05-01T02:28:10.708Z,8.48
2023-05-01T02:30:47.280Z,8.45
2023-05-01T02:37:40.369Z,8.42
2023-05-01T02:43:39.182Z,8.41
2023-05-01T02:46:26.172Z,8.42
2023-05-01T02:49:36.865Z,8.44
2023-05-01T02:52:29.637Z,8.46
2023-05-01T02:59:33.768Z,8.49
2023-05-01T03:02:19.032Z,8.48
2023-05-01T03:04:59.172Z,8.52
2023-05-01T03:07:35.515Z,8.54
2023-05-01T03:10:14.083Z,8.55
2023-05-01T03:13:12.290Z,8.56
2023-05-01T03:15:51.435Z,8.58
2023-05-01T03:18:23.424Z,8.59
2023-05-01T03:21:07.668Z,8.61
2023-05-01T03:24:25.249Z,8.62
2023-05-01T03:27:58.883Z,8.63
2023-05-01T03:31:01.943Z,8.61
2023-05-01T03:34:19.235Z,8.58
2023-05-01T03:37:01.707Z,8.57
2023-05-01T03:39:40.427Z,8.58
2023-05-01T03:42:31.727Z,8.60
2023-05-01T03:45:27.157Z,8.62
2023-05-01T03:48:07.485Z,8.66
2023-05-01T03:51:13.866Z,8.71
2023-05-01T03:54:22.516Z,8.77
2023-05-01T03:57:10.901Z,8.82
2023-05-01T03:59:52.539Z,8.87
2023-05-01T04:02:28.459Z,8.93
2023-05-01T04:05:15.231Z,8.97
2023-05-01T04:08:01.466Z,9.03
2023-05-01T04:10:43.450Z,9.06
2023-05-01T04:13:35.912Z,9.11
2023-05-01T04:16:27.785Z,9.14
2023-05-01T04:19:14.614Z,9.15
2023-05-01T04:22:20.074Z,9.18
2023-05-01T04:25:18.097Z,9.20
2023-05-01T04:29:13.900Z,9.24
2023-05-01T04:32:30.199Z,9.32
2023-05-01T04:35:11.668Z,9.40
2023-05-01T04:37:48.159Z,9.46
2023-05-01T04:40:43.712Z,9.54
2023-05-01T04:43:54.017Z,9.62
2023-05-01T04:46:37.671Z,9.73
2023-05-01T04:49:45.402Z,9.79
2023-05-01T04:52:31.558Z,9.87
2023-05-01T04:55:55.317Z,9.92
2023-05-01T04:58:51.695Z,10.01
2023-05-01T05:01:42.431Z,10.05
2023-05-01T05:04:57.225Z,10.18
2023-05-01T05:07:42.186Z,10.28
2023-05-01T05:11:01.728Z,10.44
2023-05-01T05:14:29.319Z,10.62
2023-05-01T05:17:10.463Z,10.73
2023-05-01T05:29:31.821Z,11.18
2023-05-01T05:32:34.454Z,11.28
2023-05-01T05:35:46.235Z,11.38
2023-05-01T05:38:22.720Z,11.50
2023-05-01T05:41:40.594Z,11.57
2023-05-01T05:44:19.264Z,11.69
2023-05-01T05:47:07.872Z,11.74
2023-05-01T05:54:09.384Z,11.83
2023-05-01T05:57:35.385Z,11.87
2023-05-01T06:00:46.771Z,11.93
2023-05-01T06:08:01.878Z,11.90
2023-05-01T06:11:06.559Z,11.84
2023-05-01T06:14:09.984Z,11.87
2023-05-01T06:30:38.189Z,11.88
2023-05-01T06:38:39.759Z,11.99
2023-05-01T06:50:30.926Z,11.82
2023-05-01T07:05:44.290Z,12.07
2023-05-01T07:21:20.661Z,12.17
2023-05-01T07:29:07.290Z,12.30
2023-05-01T07:32:18.190Z,12.31
2023-05-01T07:35:20.975Z,12.39
2023-05-01T07:42:15.406Z,12.62
2023-05-01T07:45:51.630Z,12.68
2023-05-01T07:48:49.969Z,12.75
2023-05-01T07:51:59.504Z,12.73
2023-05-01T07:54:59.813Z,12.62
2023-05-01T08:21:43.885Z,13.40
2023-05-01T08:33:49.820Z,13.82
2023-05-01T08:42:15.056Z,13.83
2023-05-01T08:50:10.060Z,14.16
2023-05-01T09:07:32.247Z,14.67
2023-05-01T09:24:46.886Z,14.85
2023-05-01T10:21:58.883Z,15.60
2023-05-01T10:51:41.884Z,16.05
2023-05-01T12:06:58.260Z,16.59
2023-05-01T12:32:51.300Z,16.88
2023-05-01T12:54:28.553Z,16.67
2023-05-01T13:06:47.319Z,16.83
2023-05-01T13:23:32.731Z,16.94
2023-05-01T13:27:52.846Z,16.95
2023-05-01T13:50:45.758Z,17.62
2023-05-01T14:22:20.979Z,17.94
2023-05-01T14:30:17.167Z,18.05
2023-05-01T14:33:48.978Z,18.12
2023-05-01T15:01:08.746Z,18.26
2023-05-01T15:51:23.937Z,17.80
2023-05-01T17:22:59.729Z,14.58
2023-05-01T17:35:30.618Z,14.26
2023-05-01T17:39:38.464Z,14.20
2023-05-01T17:47:57.901Z,14.02
2023-05-01T17:56:20.243Z,13.87
2023-05-01T17:59:51.802Z,13.81
2023-05-01T18:17:31.957Z,13.52
2023-05-01T18:29:57.406Z,13.38
2023-05-01T18:33:36.883Z,13.33
2023-05-01T18:41:28.040Z,13.21
2023-05-01T18:54:49.091Z,13.02
2023-05-01T19:24:40.551Z,12.63
2023-05-01T19:33:29.128Z,12.49
2023-05-01T19:36:58.498Z,12.43
2023-05-01T19:39:43.690Z,12.38
2023-05-01T19:42:55.824Z,12.36
2023-05-01T19:45:31.574Z,12.37
2023-05-01T19:48:12.697Z,12.36
2023-05-01T19:51:41.553Z,12.35
2023-05-01T19:54:49.559Z,12.30
2023-05-01T19:57:55.249Z,12.29
2023-05-01T20:00:49.031Z,12.25
2023-05-01T20:03:27.086Z,12.19
2023-05-01T20:06:20.494Z,12.17
2023-05-01T20:09:00.462Z,12.17
2023-05-01T20:13:36.470Z,12.21
2023-05-01T20:16:53.054Z,12.17
2023-05-01T20:19:33.662Z,12.06
2023-05-01T20:23:26.450Z,11.99
2023-05-01T20:26:07.312Z,11.91
2023-05-01T20:29:04.680Z,11.83
2023-05-01T20:32:50.589Z,11.80
2023-05-01T20:36:02.955Z,11.75
2023-05-01T20:53:00.126Z,11.37
2023-05-01T20:55:36.718Z,11.40
2023-05-01T20:58:37.021Z,11.40
2023-05-01T21:01:30.381Z,11.42
2023-05-01T21:04:18.273Z,11.41
2023-05-01T21:06:56.852Z,11.39
2023-05-01T21:10:02.804Z,11.37
2023-05-01T21:17:36.691Z,11.27
2023-05-01T21:20:22.444Z,11.26
2023-05-01T21:23:48.106Z,11.24
2023-05-01T21:26:40.340Z,11.21
2023-05-01T21:30:02.910Z,11.18
2023-05-01T21:33:02.578Z,11.15
2023-05-01T21:36:37.467Z,11.10
2023-05-01T21:39:42.912Z,11.08
2023-05-01T21:42:32.662Z,11.04
2023-05-01T21:46:33.773Z,11.02
2023-05-01T21:50:07.018Z,11.03
2023-05-01T21:52:51.693Z,11.02
2023-05-01T21:55:48.904Z,11.02
2023-05-01T21:59:05.685Z,11.02
2023-05-01T22:02:02.188Z,11.00
2023-05-01T22:05:17.986Z,10.97
2023-05-01T22:11:33.787Z,10.80
2023-05-01T22:15:10.043Z,10.86
2023-05-01T22:21:48.803Z,10.85
2023-05-01T22:24:34.620Z,10.79
2023-05-01T22:27:34.893Z,10.78
2023-05-01T22:30:13.135Z,10.75
2023-05-01T22:32:49.555Z,10.73
2023-05-01T22:35:52.834Z,10.70
2023-05-01T22:38:49.575Z,10.63
2023-05-01T22:41:41.799Z,10.58
2023-05-01T22:45:14.268Z,10.54
2023-05-01T22:48:01.041Z,10.54
2023-05-01T22:50:46.045Z,10.50
2023-05-01T22:54:38.585Z,10.49
2023-05-01T23:00:21.901Z,10.44
2023-05-01T23:03:12.078Z,10.49
2023-05-01T23:09:27.660Z,10.45
2023-05-01T23:12:00.436Z,10.42
2023-05-01T23:14:53.240Z,10.39
2023-05-01T23:17:37.267Z,10.38
2023-05-01T23:20:18.557Z,10.36
2023-05-01T23:23:08.437Z,10.37
2023-05-01T23:30:13.165Z,10.35
2023-05-01T23:32:45.948Z,10.33
2023-05-01T23:36:35.273Z,10.34
2023-05-01T23:39:18.277Z,10.34
2023-05-01T23:41:54.414Z,10.29
2023-05-01T23:44:31.364Z,10.28
2023-05-01T23:47:34.596Z,10.30
2023-05-01T23:50:26.073Z,10.30
2023-05-01T23:53:03.026Z,10.26
2023-05-01T23:55:44.639Z,10.23
2023-05-01T23:58:21.318Z,10.20
